createdAt,value
2022-11-18T00:01:19.062Z,2.15
2022-11-18T00:06:24.377Z,2.05
2022-11-18T00:08:54.700Z,1.73
2022-11-18T00:11:43.279Z,2.40
2022-11-18T00:14:19.357Z,1.23
2022-11-18T00:16:50.406Z,1.52
2022-11-18T00:19:18.840Z,1.60
2022-11-18T00:21:46.430Z,1.00
2022-11-18T00:24:13.431Z,2.38
2022-11-18T00:26:40.457Z,2.83
2022-11-18T00:29:10.659Z,1.25
2022-11-18T00:31:38.722Z,1.23
2022-11-18T00:34:06.468Z,1.25
2022-11-18T00:36:33.675Z,1.95
2022-11-18T00:39:00.749Z,1.23
2022-11-18T00:41:48.769Z,3.55
2022-11-18T00:44:15.997Z,1.58
2022-11-18T00:46:43.111Z,1.60
2022-11-18T00:49:10.400Z,5.25
2022-11-18T00:51:37.683Z,1.67
2022-11-18T00:54:05.050Z,2.38
2022-11-18T00:56:32.136Z,3.70
2022-11-18T00:58:59.199Z,1.23
2022-11-18T01:01:26.595Z,0.77
2022-11-18T01:03:54.097Z,4.78
2022-11-18T01:06:21.047Z,7.03
2022-11-18T01:08:49.032Z,4.03
2022-11-18T01:11:34.642Z,1.60
2022-11-18T01:14:01.893Z,1.95
2022-11-18T01:16:29.667Z,4.63
2022-11-18T01:18:57.174Z,2.38
2022-11-18T01:21:24.844Z,2.50
2022-11-18T01:23:52.025Z,2.70
2022-11-18T01:26:19.096Z,1.08
2022-11-18T01:28:46.625Z,4.03
2022-11-18T01:31:18.660Z,1.55
2022-11-18T01:33:46.738Z,1.92
2022-11-18T01:36:17.125Z,4.65
2022-11-18T01:38:44.196Z,3.10
2022-11-18T01:41:11.451Z,2.70
2022-11-18T01:44:32.287Z,1.40
2022-11-18T01:46:59.376Z,6.28
2022-11-18T01:49:26.574Z,7.88
2022-11-18T01:51:58.302Z,2.63
2022-11-18T01:54:36.072Z,1.25
2022-11-18T01:57:08.206Z,2.40
2022-11-18T01:59:39.576Z,2.58
2022-11-18T02:02:11.496Z,4.88
2022-11-18T02:07:11.676Z,4.93
2022-11-18T02:09:39.176Z,3.28
2022-11-18T02:12:07.795Z,2.03
2022-11-18T02:14:38.651Z,1.60
2022-11-18T02:17:20.486Z,4.63
2022-11-18T02:19:47.468Z,2.38
2022-11-18T02:22:47.500Z,3.92
2022-11-18T02:25:49.512Z,1.95
2022-11-18T02:28:54.337Z,4.28
2022-11-18T02:31:30.268Z,2.22
2022-11-18T02:34:18.892Z,2.55
2022-11-18T02:36:55.340Z,3.50
2022-11-18T02:39:48.785Z,1.70
2022-11-18T02:42:17.205Z,3.03
2022-11-18T02:44:51.152Z,2.00
2022-11-18T02:47:20.147Z,3.10
2022-11-18T02:49:51.807Z,3.30
2022-11-18T02:52:21.538Z,1.38
2022-11-18T02:54:50.491Z,2.45
2022-11-18T02:57:19.474Z,1.67
2022-11-18T02:59:46.423Z,1.63
2022-11-18T03:02:18.735Z,4.03
2022-11-18T03:04:47.736Z,3.03
2022-11-18T03:07:14.871Z,1.88
2022-11-18T03:09:46.582Z,1.42
2022-11-18T03:12:51.043Z,2.10
2022-11-18T03:15:39.569Z,3.15
2022-11-18T03:18:25.231Z,1.73
2022-11-18T03:21:10.083Z,1.60
2022-11-18T03:24:02.491Z,3.58
2022-11-18T03:26:33.322Z,3.13
2022-11-18T03:29:25.849Z,2.33
2022-11-18T03:32:21.588Z,1.73
2022-11-18T03:34:52.723Z,2.28
2022-11-18T03:37:22.881Z,4.75
2022-11-18T03:39:54.256Z,1.77
2022-11-18T03:42:26.869Z,2.65
2022-11-18T03:45:10.822Z,2.22
2022-11-18T03:47:44.229Z,5.75
2022-11-18T03:50:21.123Z,4.55
2022-11-18T03:52:50.369Z,2.20
2022-11-18T03:55:40.947Z,2.47
2022-11-18T03:58:30.877Z,2.15
2022-11-18T04:01:04.835Z,2.00
2022-11-18T04:03:31.967Z,1.88
2022-11-18T04:06:09.483Z,3.67
2022-11-18T04:08:40.286Z,2.08
2022-11-18T04:11:38.557Z,2.00
2022-11-18T04:14:08.458Z,3.20
2022-11-18T04:16:44.309Z,3.92
2022-11-18T04:19:11.780Z,1.10
2022-11-18T04:21:38.737Z,2.25
2022-11-18T04:24:06.093Z,1.90
2022-11-18T04:26:33.077Z,2.63
2022-11-18T04:29:00.698Z,3.38
2022-11-18T04:31:27.827Z,8.63
2022-11-18T04:33:54.798Z,3.03
2022-11-18T04:36:21.849Z,3.08
2022-11-18T04:38:48.874Z,2.67
2022-11-18T04:41:15.962Z,3.97
2022-11-18T04:43:42.870Z,1.20
2022-11-18T04:46:09.830Z,1.25
2022-11-18T04:48:36.727Z,3.50
2022-11-18T04:51:05.032Z,4.80
2022-11-18T04:53:32.000Z,2.13
2022-11-18T04:56:06.541Z,3.80
2022-11-18T04:58:33.810Z,1.58
2022-11-18T05:01:00.757Z,2.42
2022-11-18T05:03:27.633Z,3.60
2022-11-18T05:05:54.535Z,1.88
2022-11-18T05:08:21.496Z,1.92
2022-11-18T05:10:48.455Z,3.20
2022-11-18T05:13:15.405Z,2.03
2022-11-18T05:15:42.280Z,0.93
2022-11-18T05:18:11.315Z,2.55
2022-11-18T05:20:41.506Z,1.67
2022-11-18T05:23:08.841Z,2.40
2022-11-18T05:25:36.088Z,2.20
2022-11-18T05:28:03.140Z,2.30
2022-11-18T05:30:30.052Z,0.85
2022-11-18T05:32:56.954Z,2.83
2022-11-18T05:35:23.833Z,2.00
2022-11-18T05:37:50.711Z,2.70
2022-11-18T05:40:17.883Z,4.57
2022-11-18T05:43:03.415Z,2.55
2022-11-18T05:45:30.543Z,1.70
2022-11-18T05:48:03.044Z,1.58
2022-11-18T05:50:31.450Z,1.52
2022-11-18T05:52:59.089Z,4.28
2022-11-18T05:55:44.772Z,2.75
2022-11-18T05:58:11.699Z,2.70
2022-11-18T06:00:38.796Z,1.52
2022-11-18T06:03:12.432Z,4.85
2022-11-18T06:05:39.496Z,3.38
2022-11-18T06:08:08.179Z,6.85
2022-11-18T06:10:38.208Z,1.73
2022-11-18T06:13:09.497Z,2.90
2022-11-18T06:15:40.677Z,2.28
2022-11-18T06:18:18.714Z,2.15
2022-11-18T06:20:46.335Z,5.20
2022-11-18T06:23:13.878Z,8.02
2022-11-18T06:25:43.677Z,1.55
2022-11-18T06:28:13.921Z,1.45
2022-11-18T06:30:41.188Z,1.42
2022-11-18T06:33:11.277Z,1.63
2022-11-18T06:35:38.289Z,2.55
2022-11-18T06:38:05.393Z,2.92
2022-11-18T06:40:35.345Z,5.55
2022-11-18T06:43:29.561Z,2.08
2022-11-18T06:46:23.145Z,4.95
2022-11-18T06:48:50.370Z,5.03
2022-11-18T06:51:17.712Z,4.40
2022-11-18T06:53:44.764Z,1.60
2022-11-18T06:56:14.096Z,2.40
2022-11-18T06:58:41.261Z,2.38
2022-11-18T07:01:14.152Z,10.13
2022-11-18T07:06:10.171Z,4.43
2022-11-18T07:08:38.687Z,2.47
2022-11-18T07:11:07.924Z,2.35
2022-11-18T07:13:39.135Z,2.25
2022-11-18T07:16:17.889Z,3.95
2022-11-18T07:18:47.423Z,4.10
2022-11-18T07:21:17.849Z,2.85
2022-11-18T07:23:45.463Z,1.67
2022-11-18T07:26:13.282Z,1.60
2022-11-18T07:28:40.767Z,3.03
2022-11-18T07:31:16.298Z,6.85
2022-11-18T07:33:44.210Z,1.92
2022-11-18T07:36:35.368Z,6.78
2022-11-18T07:39:04.890Z,2.38
2022-11-18T07:41:33.721Z,2.47
2022-11-18T07:44:04.929Z,1.23
2022-11-18T07:46:37.065Z,2.47
2022-11-18T07:49:09.221Z,1.55
2022-11-18T07:51:39.223Z,5.80
2022-11-18T07:54:13.974Z,1.77
2022-11-18T07:56:41.809Z,2.13
2022-11-18T07:59:09.985Z,2.17
2022-11-18T08:01:37.163Z,1.10
2022-11-18T08:04:09.722Z,2.45
2022-11-18T08:06:37.642Z,2.00
2022-11-18T08:09:05.843Z,6.55
2022-11-18T08:11:32.916Z,5.78
2022-11-18T08:14:00.102Z,3.25
2022-11-18T08:16:27.640Z,4.15
2022-11-18T08:18:54.759Z,4.30
2022-11-18T08:21:22.987Z,2.42
2022-11-18T08:23:51.634Z,1.27
2022-11-18T08:26:19.091Z,1.33
2022-11-18T08:28:47.672Z,4.57
2022-11-18T08:31:18.908Z,5.28
2022-11-18T08:33:46.941Z,1.77
2022-11-18T08:36:19.823Z,1.83
2022-11-18T08:38:47.383Z,2.40
2022-11-18T08:41:15.922Z,4.60
2022-11-18T08:43:44.270Z,4.25
2022-11-18T08:46:11.413Z,11.55
2022-11-18T08:48:39.402Z,2.55
2022-11-18T08:51:09.190Z,4.55
2022-11-18T08:53:36.135Z,9.57
2022-11-18T08:56:03.334Z,6.88
2022-11-18T08:58:30.724Z,3.78
2022-11-18T09:00:58.644Z,3.75
2022-11-18T09:03:25.859Z,4.10
2022-11-18T09:05:52.805Z,3.35
2022-11-18T09:08:20.265Z,3.00
2022-11-18T09:10:47.721Z,3.35
2022-11-18T09:16:03.762Z,3.05
2022-11-18T09:18:31.464Z,5.13
2022-11-18T09:21:04.416Z,4.72
2022-11-18T09:23:33.212Z,3.97
2022-11-18T09:26:06.916Z,3.38
2022-11-18T09:28:34.837Z,4.88
2022-11-18T09:31:10.756Z,1.92
2022-11-18T09:33:38.453Z,3.65
2022-11-18T09:36:11.806Z,4.20
2022-11-18T09:38:42.654Z,3.38
2022-11-18T09:41:27.052Z,9.88
2022-11-18T09:44:00.611Z,2.63
2022-11-18T09:46:34.806Z,13.68
2022-11-18T09:49:13.028Z,3.97
2022-11-18T09:51:48.731Z,8.18
2022-11-18T09:54:21.320Z,2.58
2022-11-18T09:56:49.187Z,9.05
2022-11-18T09:59:19.017Z,6.80
2022-11-18T10:01:46.831Z,7.82
2022-11-18T10:04:19.804Z,1.52
2022-11-18T10:06:48.626Z,4.70
2022-11-18T10:09:31.884Z,3.22
2022-11-18T10:12:37.892Z,3.53
2022-11-18T10:15:21.344Z,2.38
2022-11-18T10:18:09.076Z,3.65
2022-11-18T10:20:57.996Z,6.13
2022-11-18T10:23:43.932Z,5.78
2022-11-18T10:26:10.991Z,2.30
2022-11-18T10:28:38.277Z,2.97
2022-11-18T10:31:11.141Z,5.88
2022-11-18T10:33:39.296Z,6.35
2022-11-18T10:36:16.429Z,2.58
2022-11-18T10:38:49.763Z,3.03
2022-11-18T10:41:20.670Z,1.80
2022-11-18T10:43:55.331Z,5.38
2022-11-18T10:46:29.607Z,3.08
2022-11-18T10:49:08.812Z,5.88
2022-11-18T10:51:41.935Z,4.60
2022-11-18T10:54:14.540Z,4.93
2022-11-18T10:57:15.936Z,5.25
2022-11-18T10:59:51.771Z,3.67
2022-11-18T11:02:18.855Z,3.90
2022-11-18T11:04:47.913Z,2.63
2022-11-18T11:07:26.221Z,3.28
2022-11-18T11:10:23.258Z,3.65
2022-11-18T11:12:57.514Z,2.30
2022-11-18T11:15:38.464Z,10.23
2022-11-18T11:18:42.445Z,2.30
2022-11-18T11:21:14.466Z,6.03
2022-11-18T11:29:30.823Z,3.13
2022-11-18T11:32:15.878Z,3.22
2022-11-18T11:35:21.828Z,4.25
2022-11-18T11:38:20.107Z,4.82
2022-11-18T11:41:08.521Z,2.13
2022-11-18T11:43:45.661Z,3.95
2022-11-18T11:46:28.263Z,4.30
2022-11-18T11:49:23.116Z,6.72
2022-11-18T11:52:29.836Z,4.45
2022-11-18T11:55:11.057Z,4.75
2022-11-18T11:58:06.956Z,5.35
2022-11-18T12:00:40.123Z,5.63
2022-11-18T12:03:25.862Z,3.65
2022-11-18T12:05:52.818Z,3.72
2022-11-18T12:08:24.644Z,3.20
2022-11-18T12:13:52.444Z,5.88
2022-11-18T12:16:19.369Z,3.33
2022-11-18T12:18:59.570Z,6.18
2022-11-18T12:21:58.282Z,6.43
2022-11-18T12:24:39.537Z,5.18
2022-11-18T12:27:20.262Z,4.28
2022-11-18T12:29:50.498Z,2.78
2022-11-18T12:32:29.302Z,5.28
2022-11-18T12:35:00.910Z,3.25
2022-11-18T12:37:27.900Z,6.13
2022-11-18T12:39:58.540Z,6.70
2022-11-18T12:43:03.975Z,3.55
2022-11-18T12:45:44.324Z,4.28
2022-11-18T12:48:41.845Z,5.72
2022-11-18T12:51:15.073Z,1.98
2022-11-18T12:53:44.692Z,4.28
2022-11-18T12:56:17.427Z,7.60
2022-11-18T12:58:49.916Z,3.25
2022-11-18T13:01:19.585Z,6.45
2022-11-18T13:03:46.985Z,3.67
2022-11-18T13:06:24.367Z,5.70
2022-11-18T13:09:27.407Z,5.90
2022-11-18T13:12:05.424Z,3.10
2022-11-18T13:15:02.316Z,4.60
2022-11-18T13:17:51.782Z,2.95
2022-11-18T13:20:31.251Z,6.60
2022-11-18T13:23:22.832Z,4.22
2022-11-18T13:25:50.910Z,2.63
2022-11-18T13:28:35.763Z,6.47
2022-11-18T13:31:26.574Z,4.43
2022-11-18T13:33:53.676Z,3.88
2022-11-18T13:36:26.396Z,3.30
2022-11-18T13:39:06.479Z,1.50
2022-11-18T13:41:35.439Z,3.53
2022-11-18T13:44:27.371Z,5.97
2022-11-18T13:47:22.365Z,5.93
2022-11-18T13:49:55.262Z,7.88
2022-11-18T13:52:33.475Z,6.07
2022-11-18T13:55:06.747Z,2.53
2022-11-18T13:57:36.043Z,3.25
2022-11-18T14:00:07.586Z,4.05
2022-11-18T14:02:41.181Z,5.85
2022-11-18T14:05:21.746Z,1.60
2022-11-18T14:08:34.942Z,6.32
2022-11-18T14:11:03.938Z,3.20
2022-11-18T14:13:48.830Z,6.35
2022-11-18T14:16:21.860Z,5.65
2022-11-18T14:18:54.226Z,2.63
2022-11-18T14:21:29.546Z,4.40
2022-11-18T14:23:57.265Z,4.03
2022-11-18T14:26:37.696Z,7.88
2022-11-18T14:29:23.030Z,5.88
2022-11-18T14:32:12.378Z,4.55
2022-11-18T14:34:39.561Z,3.38
2022-11-18T14:37:14.412Z,2.72
2022-11-18T14:39:41.856Z,4.30
2022-11-18T14:42:13.100Z,4.03
2022-11-18T14:44:40.349Z,4.30
2022-11-18T14:47:27.288Z,2.53
2022-11-18T14:49:54.432Z,2.70
2022-11-18T14:52:21.513Z,3.40
2022-11-18T14:54:48.578Z,4.55
2022-11-18T14:57:17.370Z,3.15
2022-11-18T14:59:44.488Z,2.28
2022-11-18T15:02:18.303Z,4.70
2022-11-18T15:04:46.839Z,14.30
2022-11-18T15:07:23.028Z,3.17
2022-11-18T15:09:50.896Z,4.28
2022-11-18T15:12:18.949Z,5.28
2022-11-18T15:14:45.908Z,4.63
2022-11-18T15:17:15.734Z,7.43
2022-11-18T15:19:43.053Z,8.35
2022-11-18T15:22:10.061Z,14.23
2022-11-18T15:24:37.198Z,11.00
2022-11-18T15:27:05.472Z,5.28
2022-11-18T15:29:32.967Z,2.33
2022-11-18T15:32:05.399Z,5.38
2022-11-18T15:34:33.539Z,5.25
2022-11-18T15:37:00.618Z,3.38
2022-11-18T15:39:27.700Z,4.18
2022-11-18T15:41:54.777Z,5.32
2022-11-18T15:44:22.271Z,4.68
2022-11-18T15:46:50.613Z,3.72
2022-11-18T15:49:18.387Z,4.32
2022-11-18T15:51:45.423Z,6.00
2022-11-18T15:54:12.683Z,8.48
2022-11-18T15:56:42.164Z,7.53
2022-11-18T15:59:17.524Z,6.45
2022-11-18T16:01:47.359Z,5.00
2022-11-18T16:04:16.980Z,4.38
2022-11-18T16:06:44.609Z,4.03
2022-11-18T16:09:12.479Z,8.05
2022-11-18T16:11:58.516Z,6.47
2022-11-18T16:14:26.184Z,6.70
2022-11-18T16:16:55.192Z,6.25
2022-11-18T16:19:24.809Z,6.18
2022-11-18T16:21:57.073Z,5.05
2022-11-18T16:24:29.141Z,4.97
2022-11-18T16:29:24.614Z,5.07
2022-11-18T16:31:53.095Z,6.07
2022-11-18T16:34:22.980Z,5.95
2022-11-18T16:36:52.506Z,5.93
2022-11-18T16:39:29.261Z,5.75
2022-11-18T16:42:08.716Z,7.43
2022-11-18T16:44:37.215Z,8.43
2022-11-18T16:47:12.371Z,10.77
2022-11-18T16:49:42.352Z,9.60
2022-11-18T16:52:09.528Z,7.53
2022-11-18T16:54:42.810Z,5.68
2022-11-18T16:57:11.746Z,5.18
2022-11-18T16:59:38.742Z,10.13
2022-11-18T17:02:07.009Z,7.28
2022-11-18T17:04:37.341Z,8.38
2022-11-18T17:07:05.089Z,9.38
2022-11-18T17:09:32.142Z,8.25
2022-11-18T17:11:59.554Z,10.40
2022-11-18T17:14:26.664Z,6.63
2022-11-18T17:16:53.958Z,8.88
2022-11-18T17:19:23.015Z,9.02
2022-11-18T17:21:51.766Z,8.13
2022-11-18T17:24:21.937Z,8.75
2022-11-18T17:26:50.402Z,9.40
2022-11-18T17:29:18.549Z,8.30
2022-11-18T17:31:45.775Z,10.35
2022-11-18T17:34:14.685Z,6.60
2022-11-18T17:36:42.585Z,13.65
2022-11-18T17:39:11.101Z,8.13
2022-11-18T17:41:58.389Z,8.38
2022-11-18T17:44:29.734Z,12.13
2022-11-18T17:46:56.882Z,11.15
2022-11-18T17:49:24.797Z,8.30
2022-11-18T17:51:51.751Z,8.80
2022-11-18T17:54:19.706Z,8.75
2022-11-18T17:56:47.724Z,8.88
2022-11-18T17:59:17.190Z,7.65
2022-11-18T18:01:45.494Z,5.55
2022-11-18T18:04:14.736Z,11.65
2022-11-18T18:06:41.780Z,9.93
2022-11-18T18:09:08.781Z,8.82
2022-11-18T18:11:35.788Z,8.52
2022-11-18T18:14:14.684Z,6.45
2022-11-18T18:16:47.174Z,5.28
2022-11-18T18:19:18.723Z,6.63
2022-11-18T18:21:46.711Z,7.88
2022-11-18T18:24:16.369Z,8.05
2022-11-18T18:26:43.551Z,10.70
2022-11-18T18:29:13.156Z,7.95
2022-11-18T18:31:40.622Z,16.67
2022-11-18T18:34:07.657Z,9.13
2022-11-18T18:36:34.703Z,8.60
2022-11-18T18:39:02.658Z,8.25
2022-11-18T18:41:30.477Z,12.30
2022-11-18T18:44:00.784Z,8.07
2022-11-18T18:46:29.232Z,9.45
2022-11-18T18:49:11.845Z,12.02
2022-11-18T18:51:44.159Z,10.85
2022-11-18T18:54:13.236Z,12.63
2022-11-18T18:56:43.529Z,6.38
2022-11-18T18:59:11.228Z,11.10
2022-11-18T19:01:39.098Z,8.73
2022-11-18T19:04:07.743Z,9.30
2022-11-18T19:06:58.926Z,11.68
2022-11-18T19:09:25.722Z,7.97
2022-11-18T19:12:11.632Z,11.93
2022-11-18T19:14:38.888Z,7.85
2022-11-18T19:17:11.385Z,12.90
2022-11-18T19:20:02.560Z,13.15
2022-11-18T19:22:31.586Z,11.57
2022-11-18T19:24:59.752Z,8.18
2022-11-18T19:27:30.050Z,15.02
2022-11-18T19:29:58.765Z,11.93
2022-11-18T19:32:25.763Z,13.48
2022-11-18T19:34:54.355Z,12.35
2022-11-18T19:37:21.474Z,14.80
2022-11-18T19:39:48.763Z,16.98
2022-11-18T19:42:16.146Z,11.32
2022-11-18T19:44:43.253Z,15.52
2022-11-18T19:47:10.234Z,15.40
2022-11-18T19:49:38.025Z,14.45
2022-11-18T19:52:05.036Z,13.82
2022-11-18T19:54:32.052Z,12.82
2022-11-18T19:56:59.936Z,8.38
2022-11-18T19:59:26.979Z,10.48
2022-11-18T20:01:56.607Z,6.68
2022-11-18T20:04:23.784Z,8.20
2022-11-18T20:06:50.752Z,11.25
2022-11-18T20:09:18.674Z,6.55
2022-11-18T20:11:46.021Z,7.82
2022-11-18T20:14:14.304Z,6.60
2022-11-18T20:16:41.785Z,7.47
2022-11-18T20:19:14.045Z,7.30
2022-11-18T20:21:45.119Z,6.60
2022-11-18T20:24:18.489Z,8.35
2022-11-18T20:26:46.221Z,8.55
2022-11-18T20:29:13.692Z,7.57
2022-11-18T20:31:41.606Z,12.43
2022-11-18T20:34:16.351Z,13.55
2022-11-18T20:36:43.641Z,11.70
2022-11-18T20:39:15.951Z,11.70
2022-11-18T20:42:05.266Z,9.60
2022-11-18T20:44:33.844Z,9.15
2022-11-18T20:47:00.789Z,21.13
2022-11-18T20:49:27.837Z,12.27
2022-11-18T20:51:55.441Z,12.98
2022-11-18T20:54:24.298Z,13.55
2022-11-18T20:56:51.498Z,8.15
2022-11-18T20:59:18.697Z,8.50
2022-11-18T21:01:46.567Z,6.70
2022-11-18T21:04:13.707Z,9.02
2022-11-18T21:06:40.806Z,7.50
2022-11-18T21:09:09.399Z,5.75
2022-11-18T21:11:37.331Z,9.60
2022-11-18T21:14:24.595Z,5.95
2022-11-18T21:16:55.797Z,6.68
2022-11-18T21:19:26.998Z,6.10
2022-11-18T21:21:54.663Z,8.02
2022-11-18T21:24:29.613Z,8.18
2022-11-18T21:26:59.040Z,9.15
2022-11-18T21:29:27.689Z,9.32
2022-11-18T21:31:55.347Z,10.75
2022-11-18T21:34:23.015Z,12.68
2022-11-18T21:36:54.651Z,7.18
2022-11-18T21:39:23.481Z,10.68
2022-11-18T21:41:55.646Z,12.40
2022-11-18T21:44:24.748Z,9.02
2022-11-18T21:46:52.158Z,12.60
2022-11-18T21:49:19.703Z,10.20
2022-11-18T21:51:50.184Z,6.88
2022-11-18T21:54:18.626Z,8.93
2022-11-18T21:56:46.117Z,10.43
2022-11-18T21:59:13.309Z,8.60
2022-11-18T22:01:40.281Z,12.05
2022-11-18T22:04:07.390Z,9.82
2022-11-18T22:06:35.173Z,7.50
2022-11-18T22:09:04.364Z,8.45
2022-11-18T22:11:31.601Z,9.07
2022-11-18T22:13:59.347Z,8.00
2022-11-18T22:16:27.218Z,8.10
2022-11-18T22:19:03.600Z,7.28
2022-11-18T22:21:31.294Z,9.23
2022-11-18T22:24:00.077Z,4.90
2022-11-18T22:26:28.624Z,6.85
2022-11-18T22:28:57.848Z,5.30
2022-11-18T22:31:29.665Z,8.80
2022-11-18T22:36:26.098Z,3.58
2022-11-18T22:38:56.824Z,7.50
2022-11-18T22:41:44.341Z,4.28
2022-11-18T22:44:13.767Z,6.50
2022-11-18T22:46:42.244Z,6.05
2022-11-18T22:49:10.582Z,5.05
2022-11-18T22:51:38.757Z,5.45
2022-11-18T22:56:54.847Z,9.38
2022-11-18T22:59:22.701Z,6.50
2022-11-18T23:01:53.691Z,9.32
2022-11-18T23:04:20.604Z,4.50
2022-11-18T23:06:48.711Z,8.10
2022-11-18T23:09:15.824Z,6.90
2022-11-18T23:12:01.253Z,5.53
2022-11-18T23:14:28.341Z,8.70
2022-11-18T23:16:55.428Z,6.47
2022-11-18T23:19:22.756Z,6.07
2022-11-18T23:21:49.896Z,4.38
2022-11-18T23:24:18.841Z,7.13
2022-11-18T23:26:46.652Z,5.78
2022-11-18T23:29:15.860Z,6.68
2022-11-18T23:31:45.500Z,9.45
2022-11-18T23:34:14.167Z,7.50
2022-11-18T23:36:42.413Z,9.15
2022-11-18T23:39:09.785Z,14.10
2022-11-18T23:41:37.192Z,12.10
2022-11-18T23:44:04.708Z,10.10
2022-11-18T23:46:32.559Z,6.80
2022-11-18T23:48:59.469Z,12.93
2022-11-18T23:51:26.799Z,9.45
2022-11-18T23:53:55.861Z,8.30
2022-11-18T23:56:25.361Z,8.82
2022-11-18T23:58:53.590Z,8.15
